sensor_id;sensor_type;location;lat;lon;timestamp;temperature;humidity
9941;DHT22;5009;50.656;7.188;2023-03-16T05:01:02;3.30;99.70
9941;DHT22;5009;50.656;7.188;2023-03-16T05:03:28;3.30;99.90
9941;DHT22;5009;50.656;7.188;2023-03-16T05:05:53;3.30;99.90
9941;DHT22;5009;50.656;7.188;2023-03-16T05:08:19;3.30;99.80
9941;DHT22;5009;50.656;7.188;2023-03-16T05:10:44;3.30;99.90
9941;DHT22;5009;50.656;7.188;2023-03-16T05:13:12;3.30;99.90
9941;DHT22;5009;50.656;7.188;2023-03-16T05:15:38;3.40;99.90
9941;DHT22;5009;50.656;7.188;2023-03-16T05:18:03;3.40;99.90
9941;DHT22;5009;50.656;7.188;2023-03-16T05:20:29;3.40;99.90
9941;DHT22;5009;50.656;7.188;2023-03-16T05:22:56;3.40;99.90
9941;DHT22;5009;50.656;7.188;2023-03-16T05:25:21;3.40;99.90
9941;DHT22;5009;50.656;7.188;2023-03-16T05:27:49;3.40;99.90
9941;DHT22;5009;50.656;7.188;2023-03-16T05:30:16;3.50;99.90
9941;DHT22;5009;50.656;7.188;2023-03-16T05:32:43;3.40;99.80
9941;DHT22;5009;50.656;7.188;2023-03-16T05:35:10;3.50;99.80
9941;DHT22;5009;50.656;7.188;2023-03-16T05:37:38;3.50;99.90
9941;DHT22;5009;50.656;7.188;2023-03-16T05:40:10;3.40;99.90
9941;DHT22;5009;50.656;7.188;2023-03-16T05:42:45;3.50;99.90
9941;DHT22;5009;50.656;7.188;2023-03-16T05:45:13;3.40;99.90
9941;DHT22;5009;50.656;7.188;2023-03-16T05:47:39;3.40;99.90
9941;DHT22;5009;50.656;7.188;2023-03-16T05:50:07;3.40;99.90
9941;DHT22;5009;50.656;7.188;2023-03-16T05:52:36;3.40;99.90
9941;DHT22;5009;50.656;7.188;2023-03-16T05:55:04;3.40;99.90
9941;DHT22;5009;50.656;7.188;2023-03-16T05:57:31;3.40;99.90
9941;DHT22;5009;50.656;7.188;2023-03-16T05:59:56;3.40;99.90
9941;DHT22;5009;50.656;7.188;2023-03-16T06:02:22;3.50;99.90
9941;DHT22;5009;50.656;7.188;2023-03-16T06:04:48;3.50;99.90
9941;DHT22;5009;50.656;7.188;2023-03-16T06:07:13;3.50;99.90
9941;DHT22;5009;50.656;7.188;2023-03-16T06:09:39;3.50;99.90
9941;DHT22;5009;50.656;7.188;2023-03-16T06:12:04;3.40;99.90
9941;DHT22;5009;50.656;7.188;2023-03-16T06:14:30;3.50;99.90
9941;DHT22;5009;50.656;7.188;2023-03-16T06:16:55;3.50;99.90
9941;DHT22;5009;50.656;7.188;2023-03-16T06:19:21;3.50;99.90
9941;DHT22;5009;50.656;7.188;2023-03-16T06:21:47;3.60;99.90
9941;DHT22;5009;50.656;7.188;2023-03-16T06:24:12;3.60;99.90
9941;DHT22;5009;50.656;7.188;2023-03-16T06:26:38;3.70;99.90
9941;DHT22;5009;50.656;7.188;2023-03-16T06:29:04;3.60;99.90
9941;DHT22;5009;50.656;7.188;2023-03-16T06:31:30;3.70;99.90
9941;DHT22;5009;50.656;7.188;2023-03-16T06:33:57;3.70;99.70
9941;DHT22;5009;50.656;7.188;2023-03-16T06:36:23;3.80;99.90
9941;DHT22;5009;50.656;7.188;2023-03-16T06:38:49;3.90;99.80
9941;DHT22;5009;50.656;7.188;2023-03-16T06:41:14;4.00;99.40
9941;DHT22;5009;50.656;7.188;2023-03-16T06:43:40;4.10;99.40
9941;DHT22;5009;50.656;7.188;2023-03-16T06:46:06;4.20;98.80
9941;DHT22;5009;50.656;7.188;2023-03-16T06:48:32;4.50;98.10
9941;DHT22;5009;50.656;7.188;2023-03-16T06:50:57;4.70;96.90
9941;DHT22;5009;50.656;7.188;2023-03-16T06:53:24;4.70;96.20
9941;DHT22;5009;50.656;7.188;2023-03-16T06:55:50;4.70;95.90
9941;DHT22;5009;50.656;7.188;2023-03-16T06:58:15;4.70;96.40
9941;DHT22;5009;50.656;7.188;2023-03-16T07:00:41;4.70;96.30
9941;DHT22;5009;50.656;7.188;2023-03-16T07:03:07;4.60;96.50
9941;DHT22;5009;50.656;7.188;2023-03-16T07:05:32;4.60;96.70
9941;DHT22;5009;50.656;7.188;2023-03-16T07:07:58;4.60;96.80
9941;DHT22;5009;50.656;7.188;2023-03-16T07:10:24;4.70;97.10
9941;DHT22;5009;50.656;7.188;2023-03-16T07:12:50;4.70;96.50
9941;DHT22;5009;50.656;7.188;2023-03-16T07:15:16;4.90;96.60
9941;DHT22;5009;50.656;7.188;2023-03-16T07:17:42;4.90;96.20
9941;DHT22;5009;50.656;7.188;2023-03-16T07:20:09;5.10;96.10
9941;DHT22;5009;50.656;7.188;2023-03-16T07:22:38;5.20;95.40
9941;DHT22;5009;50.656;7.188;2023-03-16T07:25:05;5.30;95.30
9941;DHT22;5009;50.656;7.188;2023-03-16T07:27:31;5.40;95.40
9941;DHT22;5009;50.656;7.188;2023-03-16T07:29:57;5.50;94.60
9941;DHT22;5009;50.656;7.188;2023-03-16T07:32:25;5.50;94.70
9941;DHT22;5009;50.656;7.188;2023-03-16T07:34:50;5.60;94.80
9941;DHT22;5009;50.656;7.188;2023-03-16T07:37:16;5.80;94.70
9941;DHT22;5009;50.656;7.188;2023-03-16T07:39:41;5.90;94.30
9941;DHT22;5009;50.656;7.188;2023-03-16T07:42:08;6.00;94.30
9941;DHT22;5009;50.656;7.188;2023-03-16T07:44:33;6.20;93.70
9941;DHT22;5009;50.656;7.188;2023-03-16T07:46:59;6.40;93.30
9941;DHT22;5009;50.656;7.188;2023-03-16T07:49:25;6.40;93.00
9941;DHT22;5009;50.656;7.188;2023-03-16T07:51:50;6.50;93.10
9941;DHT22;5009;50.656;7.188;2023-03-16T07:54:16;6.60;93.00
9941;DHT22;5009;50.656;7.188;2023-03-16T07:56:41;6.80;92.50
9941;DHT22;5009;50.656;7.188;2023-03-16T07:59:07;7.20;92.30
9941;DHT22;5009;50.656;7.188;2023-03-16T08:01:32;7.20;91.50
9941;DHT22;5009;50.656;7.188;2023-03-16T08:03:59;6.90;92.10
9941;DHT22;5009;50.656;7.188;2023-03-16T08:06:26;7.00;92.20
9941;DHT22;5009;50.656;7.188;2023-03-16T08:08:52;6.80;92.50
9941;DHT22;5009;50.656;7.188;2023-03-16T08:11:18;6.80;92.60
9941;DHT22;5009;50.656;7.188;2023-03-16T08:13:49;6.70;92.50
9941;DHT22;5009;50.656;7.188;2023-03-16T08:16:21;6.50;93.50
9941;DHT22;5009;50.656;7.188;2023-03-16T08:18:47;6.60;93.10
9941;DHT22;5009;50.656;7.188;2023-03-16T08:22:42;6.40;93.30
9941;DHT22;5009;50.656;7.188;2023-03-16T08:25:10;6.60;94.10
9941;DHT22;5009;50.656;7.188;2023-03-16T08:27:36;6.40;93.60
9941;DHT22;5009;50.656;7.188;2023-03-16T08:30:07;6.40;94.10
9941;DHT22;5009;50.656;7.188;2023-03-16T08:32:35;6.40;94.50
9941;DHT22;5009;50.656;7.188;2023-03-16T08:35:02;6.50;94.70
9941;DHT22;5009;50.656;7.188;2023-03-16T08:37:27;6.60;94.50
9941;DHT22;5009;50.656;7.188;2023-03-16T08:39:53;6.60;94.40
9941;DHT22;5009;50.656;7.188;2023-03-16T08:42:19;6.70;94.00
9941;DHT22;5009;50.656;7.188;2023-03-16T08:44:45;6.80;94.10
9941;DHT22;5009;50.656;7.188;2023-03-16T08:47:12;6.90;93.80
9941;DHT22;5009;50.656;7.188;2023-03-16T08:49:39;6.90;94.00
9941;DHT22;5009;50.656;7.188;2023-03-16T08:52:06;6.80;94.00
9941;DHT22;5009;50.656;7.188;2023-03-16T08:54:34;7.00;94.00
9941;DHT22;5009;50.656;7.188;2023-03-16T08:57:00;7.00;93.70
9941;DHT22;5009;50.656;7.188;2023-03-16T08:59:25;7.00;93.60
9941;DHT22;5009;50.656;7.188;2023-03-16T09:01:51;7.10;93.60
9941;DHT22;5009;50.656;7.188;2023-03-16T09:04:17;7.00;93.90
9941;DHT22;5009;50.656;7.188;2023-03-16T09:06:42;7.00;93.60
9941;DHT22;5009;50.656;7.188;2023-03-16T09:09:08;6.90;93.80
9941;DHT22;5009;50.656;7.188;2023-03-16T09:11:34;6.80;94.00
9941;DHT22;5009;50.656;7.188;2023-03-16T09:14:00;6.80;94.60
9941;DHT22;5009;50.656;7.188;2023-03-16T09:16:26;6.90;93.90
9941;DHT22;5009;50.656;7.188;2023-03-16T09:18:52;6.90;93.30
9941;DHT22;5009;50.656;7.188;2023-03-16T09:21:19;6.80;93.80
9941;DHT22;5009;50.656;7.188;2023-03-16T09:23:44;6.90;93.60
9941;DHT22;5009;50.656;7.188;2023-03-16T09:26:11;6.90;93.70
9941;DHT22;5009;50.656;7.188;2023-03-16T09:28:40;7.00;93.50
9941;DHT22;5009;50.656;7.188;2023-03-16T09:31:07;7.10;93.60
9941;DHT22;5009;50.656;7.188;2023-03-16T09:33:34;7.20;93.70
9941;DHT22;5009;50.656;7.188;2023-03-16T09:36:00;7.60;94.40
9941;DHT22;5009;50.656;7.188;2023-03-16T09:38:27;7.60;92.60
9941;DHT22;5009;50.656;7.188;2023-03-16T09:40:58;7.70;92.50
9941;DHT22;5009;50.656;7.188;2023-03-16T09:43:40;7.70;92.00
9941;DHT22;5009;50.656;7.188;2023-03-16T09:46:22;7.80;92.30
9941;DHT22;5009;50.656;7.188;2023-03-16T09:48:48;8.00;91.80
9941;DHT22;5009;50.656;7.188;2023-03-16T09:53:55;8.00;91.60
9941;DHT22;5009;50.656;7.188;2023-03-16T09:56:38;7.70;91.20
9941;DHT22;5009;50.656;7.188;2023-03-16T09:59:13;7.80;91.60
9941;DHT22;5009;50.656;7.188;2023-03-16T10:05:03;7.90;91.60
9941;DHT22;5009;50.656;7.188;2023-03-16T10:07:24;7.90;91.30
9941;DHT22;5009;50.656;7.188;2023-03-16T10:10:05;8.00;92.00
9941;DHT22;5009;50.656;7.188;2023-03-16T10:12:48;8.00;91.20
9941;DHT22;5009;50.656;7.188;2023-03-16T10:15:21;8.00;90.90
9941;DHT22;5009;50.656;7.188;2023-03-16T10:18:18;8.00;91.20
9941;DHT22;5009;50.656;7.188;2023-03-16T10:20:44;8.00;91.10
9941;DHT22;5009;50.656;7.188;2023-03-16T10:23:23;8.10;91.10
9941;DHT22;5009;50.656;7.188;2023-03-16T10:25:54;8.20;91.10
9941;DHT22;5009;50.656;7.188;2023-03-16T10:28:24;8.20;91.00
9941;DHT22;5009;50.656;7.188;2023-03-16T10:30:55;8.30;91.20
9941;DHT22;5009;50.656;7.188;2023-03-16T10:33:26;8.30;90.70
9941;DHT22;5009;50.656;7.188;2023-03-16T10:43:42;8.30;90.40
9941;DHT22;5009;50.656;7.188;2023-03-16T10:46:09;8.40;90.60
9941;DHT22;5009;50.656;7.188;2023-03-16T10:48:37;8.40;90.50
9941;DHT22;5009;50.656;7.188;2023-03-16T10:51:10;8.50;90.20
9941;DHT22;5009;50.656;7.188;2023-03-16T10:53:41;8.60;90.30
9941;DHT22;5009;50.656;7.188;2023-03-16T10:56:17;8.70;90.30
9941;DHT22;5009;50.656;7.188;2023-03-16T10:58:44;8.70;90.10
9941;DHT22;5009;50.656;7.188;2023-03-16T11:01:31;8.90;90.20
9941;DHT22;5009;50.656;7.188;2023-03-16T11:03:58;9.10;90.00
9941;DHT22;5009;50.656;7.188;2023-03-16T11:06:28;9.20;89.70
9941;DHT22;5009;50.656;7.188;2023-03-16T11:09:05;9.20;88.70
9941;DHT22;5009;50.656;7.188;2023-03-16T11:11:34;9.30;87.80
9941;DHT22;5009;50.656;7.188;2023-03-16T11:14:02;9.30;88.10
9941;DHT22;5009;50.656;7.188;2023-03-16T11:16:38;9.40;88.10
9941;DHT22;5009;50.656;7.188;2023-03-16T11:19:29;9.60;89.00
9941;DHT22;5009;50.656;7.188;2023-03-16T11:22:05;9.70;87.30
9941;DHT22;5009;50.656;7.188;2023-03-16T11:24:51;9.80;87.30
9941;DHT22;5009;50.656;7.188;2023-03-16T11:30:22;10.00;86.60
9941;DHT22;5009;50.656;7.188;2023-03-16T11:32:51;10.30;86.30
9941;DHT22;5009;50.656;7.188;2023-03-16T11:35:39;10.30;85.10
9941;DHT22;5009;50.656;7.188;2023-03-16T11:41:04;10.40;84.80
9941;DHT22;5009;50.656;7.188;2023-03-16T11:43:54;10.50;85.20
9941;DHT22;5009;50.656;7.188;2023-03-16T11:46:30;10.50;83.60
9941;DHT22;5009;50.656;7.188;2023-03-16T11:51:42;10.60;83.70
9941;DHT22;5009;50.656;7.188;2023-03-16T12:00:06;10.60;82.50
9941;DHT22;5009;50.656;7.188;2023-03-16T12:02:48;10.60;82.80
9941;DHT22;5009;50.656;7.188;2023-03-16T12:10:55;10.70;82.30
9941;DHT22;5009;50.656;7.188;2023-03-16T12:13:43;10.80;81.90
9941;DHT22;5009;50.656;7.188;2023-03-16T12:19:05;10.80;81.70
9941;DHT22;5009;50.656;7.188;2023-03-16T12:21:40;10.90;81.40
9941;DHT22;5009;50.656;7.188;2023-03-16T12:24:22;11.00;81.10
9941;DHT22;5009;50.656;7.188;2023-03-16T12:26:51;11.00;81.00
9941;DHT22;5009;50.656;7.188;2023-03-16T12:29:28;11.00;80.90
9941;DHT22;5009;50.656;7.188;2023-03-16T12:32:10;10.90;80.70
9941;DHT22;5009;50.656;7.188;2023-03-16T12:37:32;11.00;80.80
9941;DHT22;5009;50.656;7.188;2023-03-16T12:43:06;11.20;80.50
9941;DHT22;5009;50.656;7.188;2023-03-16T12:45:48;11.30;79.40
9941;DHT22;5009;50.656;7.188;2023-03-16T12:50:51;11.30;79.20
9941;DHT22;5009;50.656;7.188;2023-03-16T12:53:27;11.40;79.40
9941;DHT22;5009;50.656;7.188;2023-03-16T12:55:53;11.40;77.80
9941;DHT22;5009;50.656;7.188;2023-03-16T12:58:22;11.50;77.80
9941;DHT22;5009;50.656;7.188;2023-03-16T13:00:55;11.50;78.50
9941;DHT22;5009;50.656;7.188;2023-03-16T13:03:21;11.50;77.70
9941;DHT22;5009;50.656;7.188;2023-03-16T13:05:53;11.60;77.90
9941;DHT22;5009;50.656;7.188;2023-03-16T13:08:20;11.50;77.20
9941;DHT22;5009;50.656;7.188;2023-03-16T13:11:01;11.70;76.60
9941;DHT22;5009;50.656;7.188;2023-03-16T13:13:27;11.60;76.70
9941;DHT22;5009;50.656;7.188;2023-03-16T13:16:06;11.70;76.90
9941;DHT22;5009;50.656;7.188;2023-03-16T13:18:39;11.70;76.90
9941;DHT22;5009;50.656;7.188;2023-03-16T13:21:21;11.80;77.10
9941;DHT22;5009;50.656;7.188;2023-03-16T13:28:51;12.10;76.60
9941;DHT22;5009;50.656;7.188;2023-03-16T13:33:47;12.00;76.40
9941;DHT22;5009;50.656;7.188;2023-03-16T13:36:14;11.80;75.90
9941;DHT22;5009;50.656;7.188;2023-03-16T13:38:41;12.00;76.70
9941;DHT22;5009;50.656;7.188;2023-03-16T13:41:11;12.00;76.20
9941;DHT22;5009;50.656;7.188;2023-03-16T13:43:41;12.00;75.90
9941;DHT22;5009;50.656;7.188;2023-03-16T13:46:15;12.10;75.60
9941;DHT22;5009;50.656;7.188;2023-03-16T13:48:41;11.90;75.10
9941;DHT22;5009;50.656;7.188;2023-03-16T13:51:13;12.00;76.20
9941;DHT22;5009;50.656;7.188;2023-03-16T13:53:40;12.00;75.40
9941;DHT22;5009;50.656;7.188;2023-03-16T13:56:15;12.00;75.30
9941;DHT22;5009;50.656;7.188;2023-03-16T13:58:44;12.00;75.50
9941;DHT22;5009;50.656;7.188;2023-03-16T14:03:44;12.10;75.90
9941;DHT22;5009;50.656;7.188;2023-03-16T14:06:29;12.10;74.90
9941;DHT22;5009;50.656;7.188;2023-03-16T14:09:03;11.90;74.20
9941;DHT22;5009;50.656;7.188;2023-03-16T14:11:29;12.00;75.10
9941;DHT22;5009;50.656;7.188;2023-03-16T14:13:57;12.00;75.30
9941;DHT22;5009;50.656;7.188;2023-03-16T14:16:26;11.90;74.80
9941;DHT22;5009;50.656;7.188;2023-03-16T14:19:06;11.90;74.80
9941;DHT22;5009;50.656;7.188;2023-03-16T14:21:33;11.90;74.80
9941;DHT22;5009;50.656;7.188;2023-03-16T14:24:04;11.90;75.10
9941;DHT22;5009;50.656;7.188;2023-03-16T14:26:44;11.90;75.10
9941;DHT22;5009;50.656;7.188;2023-03-16T14:29:20;11.90;75.20
9941;DHT22;5009;50.656;7.188;2023-03-16T14:31:49;11.90;75.50
9941;DHT22;5009;50.656;7.188;2023-03-16T14:34:30;11.60;74.50
9941;DHT22;5009;50.656;7.188;2023-03-16T14:39:31;11.60;75.50
9941;DHT22;5009;50.656;7.188;2023-03-16T14:42:00;11.60;75.40
9941;DHT22;5009;50.656;7.188;2023-03-16T14:44:30;11.60;75.70
9941;DHT22;5009;50.656;7.188;2023-03-16T14:46:59;11.60;76.10
9941;DHT22;5009;50.656;7.188;2023-03-16T14:49:29;11.70;76.20
9941;DHT22;5009;50.656;7.188;2023-03-16T14:52:02;11.70;75.90
9941;DHT22;5009;50.656;7.188;2023-03-16T14:54:28;11.60;75.70
9941;DHT22;5009;50.656;7.188;2023-03-16T14:56:59;11.60;75.50
9941;DHT22;5009;50.656;7.188;2023-03-16T14:59:25;11.60;75.90
9941;DHT22;5009;50.656;7.188;2023-03-16T15:01:52;11.60;76.50
9941;DHT22;5009;50.656;7.188;2023-03-16T15:04:25;11.60;75.90
9941;DHT22;5009;50.656;7.188;2023-03-16T15:06:52;11.60;76.50
9941;DHT22;5009;50.656;7.188;2023-03-16T15:09:39;11.70;76.80
9941;DHT22;5009;50.656;7.188;2023-03-16T15:12:16;11.70;76.80
9941;DHT22;5009;50.656;7.188;2023-03-16T15:14:43;11.70;76.50
9941;DHT22;5009;50.656;7.188;2023-03-16T15:17:27;11.70;76.70
9941;DHT22;5009;50.656;7.188;2023-03-16T15:19:53;11.70;77.00
9941;DHT22;5009;50.656;7.188;2023-03-16T15:22:26;11.70;77.20
9941;DHT22;5009;50.656;7.188;2023-03-16T15:24:53;11.70;77.40
9941;DHT22;5009;50.656;7.188;2023-03-16T15:27:21;11.70;77.30
9941;DHT22;5009;50.656;7.188;2023-03-16T15:29:47;11.80;78.00
9941;DHT22;5009;50.656;7.188;2023-03-16T15:32:14;11.80;78.00
9941;DHT22;5009;50.656;7.188;2023-03-16T15:34:40;11.80;78.10
9941;DHT22;5009;50.656;7.188;2023-03-16T15:37:11;11.80;78.20
9941;DHT22;5009;50.656;7.188;2023-03-16T15:39:37;11.90;78.50
9941;DHT22;5009;50.656;7.188;2023-03-16T15:42:12;11.90;78.40
9941;DHT22;5009;50.656;7.188;2023-03-16T15:44:38;11.90;78.30
9941;DHT22;5009;50.656;7.188;2023-03-16T15:47:04;11.90;78.70
9941;DHT22;5009;50.656;7.188;2023-03-16T15:49:29;11.90;79.00
9941;DHT22;5009;50.656;7.188;2023-03-16T15:51:55;11.90;79.00
9941;DHT22;5009;50.656;7.188;2023-03-16T15:54:21;11.80;79.00
9941;DHT22;5009;50.656;7.188;2023-03-16T15:56:47;11.80;79.20
9941;DHT22;5009;50.656;7.188;2023-03-16T15:59:15;11.70;79.60
9941;DHT22;5009;50.656;7.188;2023-03-16T16:01:45;11.80;79.80
9941;DHT22;5009;50.656;7.188;2023-03-16T16:04:16;11.60;79.40
9941;DHT22;5009;50.656;7.188;2023-03-16T16:06:47;11.50;79.70
9941;DHT22;5009;50.656;7.188;2023-03-16T16:09:13;11.50;80.00
9941;DHT22;5009;50.656;7.188;2023-03-16T16:11:40;11.40;79.80
9941;DHT22;5009;50.656;7.188;2023-03-16T16:14:11;11.50;80.00
9941;DHT22;5009;50.656;7.188;2023-03-16T16:16:41;11.40;80.00
9941;DHT22;5009;50.656;7.188;2023-03-16T16:19:14;11.30;80.10
9941;DHT22;5009;50.656;7.188;2023-03-16T16:21:41;11.30;80.40
9941;DHT22;5009;50.656;7.188;2023-03-16T16:24:07;11.30;80.50
9941;DHT22;5009;50.656;7.188;2023-03-16T16:26:39;11.30;81.00
9941;DHT22;5009;50.656;7.188;2023-03-16T16:29:30;11.30;80.60
9941;DHT22;5009;50.656;7.188;2023-03-16T16:31:56;11.20;80.60
9941;DHT22;5009;50.656;7.188;2023-03-16T16:34:23;11.20;81.00
9941;DHT22;5009;50.656;7.188;2023-03-16T16:36:49;11.20;80.70
9941;DHT22;5009;50.656;7.188;2023-03-16T16:39:15;11.20;81.00
9941;DHT22;5009;50.656;7.188;2023-03-16T16:41:41;11.20;80.50
9941;DHT22;5009;50.656;7.188;2023-03-16T16:44:19;11.10;80.60
9941;DHT22;5009;50.656;7.188;2023-03-16T16:46:47;11.10;80.70
9941;DHT22;5009;50.656;7.188;2023-03-16T16:49:17;11.10;80.40
9941;DHT22;5009;50.656;7.188;2023-03-16T16:51:45;11.10;80.50
9941;DHT22;5009;50.656;7.188;2023-03-16T16:54:26;11.10;80.40
9941;DHT22;5009;50.656;7.188;2023-03-16T16:56:53;11.00;80.40
9941;DHT22;5009;50.656;7.188;2023-03-16T16:59:22;11.00;80.50
9941;DHT22;5009;50.656;7.188;2023-03-16T17:01:49;11.00;80.00
9941;DHT22;5009;50.656;7.188;2023-03-16T17:04:23;10.90;80.30
9941;DHT22;5009;50.656;7.188;2023-03-16T17:06:51;10.90;80.60
9941;DHT22;5009;50.656;7.188;2023-03-16T17:09:22;10.80;80.20
9941;DHT22;5009;50.656;7.188;2023-03-16T17:11:48;10.80;80.40
9941;DHT22;5009;50.656;7.188;2023-03-16T17:14:19;10.80;80.50
9941;DHT22;5009;50.656;7.188;2023-03-16T17:16:46;10.70;80.40
9941;DHT22;5009;50.656;7.188;2023-03-16T17:19:23;10.70;80.70
9941;DHT22;5009;50.656;7.188;2023-03-16T17:21:50;10.70;80.40
9941;DHT22;5009;50.656;7.188;2023-03-16T17:24:16;10.60;80.70
9941;DHT22;5009;50.656;7.188;2023-03-16T17:26:44;10.60;80.70
9941;DHT22;5009;50.656;7.188;2023-03-16T17:29:23;10.60;80.60
9941;DHT22;5009;50.656;7.188;2023-03-16T17:31:50;10.60;80.80
9941;DHT22;5009;50.656;7.188;2023-03-16T17:34:21;10.50;80.70
9941;DHT22;5009;50.656;7.188;2023-03-16T17:36:48;10.50;80.70
9941;DHT22;5009;50.656;7.188;2023-03-16T17:39:21;10.40;80.70
9941;DHT22;5009;50.656;7.188;2023-03-16T17:41:51;10.40;80.40
9941;DHT22;5009;50.656;7.188;2023-03-16T17:44:18;10.40;80.70
9941;DHT22;5009;50.656;7.188;2023-03-16T17:46:46;10.40;80.60
9941;DHT22;5009;50.656;7.188;2023-03-16T17:49:13;10.40;80.60
9941;DHT22;5009;50.656;7.188;2023-03-16T17:51:40;10.30;80.50
9941;DHT22;5009;50.656;7.188;2023-03-16T17:54:07;10.30;80.70
9941;DHT22;5009;50.656;7.188;2023-03-16T17:56:32;10.30;80.80
9941;DHT22;5009;50.656;7.188;2023-03-16T17:59:01;10.30;80.90
9941;DHT22;5009;50.656;7.188;2023-03-16T18:01:30;10.20;80.60
9941;DHT22;5009;50.656;7.188;2023-03-16T18:04:02;10.20;80.40
9941;DHT22;5009;50.656;7.188;2023-03-16T18:06:28;10.20;80.70
9941;DHT22;5009;50.656;7.188;2023-03-16T18:08:56;10.20;80.50
9941;DHT22;5009;50.656;7.188;2023-03-16T18:11:33;10.10;80.80
9941;DHT22;5009;50.656;7.188;2023-03-16T18:14:01;10.10;81.00
9941;DHT22;5009;50.656;7.188;2023-03-16T18:16:26;10.10;81.00
9941;DHT22;5009;50.656;7.188;2023-03-16T18:19:19;10.10;81.10
9941;DHT22;5009;50.656;7.188;2023-03-16T18:21:45;10.10;81.40
9941;DHT22;5009;50.656;7.188;2023-03-16T18:24:13;10.00;81.40
9941;DHT22;5009;50.656;7.188;2023-03-16T18:26:44;10.00;81.60
9941;DHT22;5009;50.656;7.188;2023-03-16T18:29:09;10.00;81.90
9941;DHT22;5009;50.656;7.188;2023-03-16T18:31:35;10.00;82.40
9941;DHT22;5009;50.656;7.188;2023-03-16T18:34:02;9.90;83.90
9941;DHT22;5009;50.656;7.188;2023-03-16T18:36:34;9.90;84.20
9941;DHT22;5009;50.656;7.188;2023-03-16T18:39:14;9.90;84.30
9941;DHT22;5009;50.656;7.188;2023-03-16T18:41:40;9.90;84.90
9941;DHT22;5009;50.656;7.188;2023-03-16T18:44:16;9.90;84.70
9941;DHT22;5009;50.656;7.188;2023-03-16T18:46:43;9.90;85.30
9941;DHT22;5009;50.656;7.188;2023-03-16T18:49:31;9.90;84.80
9941;DHT22;5009;50.656;7.188;2023-03-16T18:51:58;9.90;84.90
9941;DHT22;5009;50.656;7.188;2023-03-16T18:54:26;9.90;85.20
9941;DHT22;5009;50.656;7.188;2023-03-16T18:56:53;9.90;85.10
9941;DHT22;5009;50.656;7.188;2023-03-16T18:59:18;9.90;85.50
9941;DHT22;5009;50.656;7.188;2023-03-16T19:01:45;9.80;85.50
9941;DHT22;5009;50.656;7.188;2023-03-16T19:04:21;9.80;85.80
9941;DHT22;5009;50.656;7.188;2023-03-16T19:06:48;9.80;85.90
9941;DHT22;5009;50.656;7.188;2023-03-16T19:09:30;9.80;86.00
9941;DHT22;5009;50.656;7.188;2023-03-16T19:11:56;9.80;86.20
9941;DHT22;5009;50.656;7.188;2023-03-16T19:14:27;9.80;86.50
9941;DHT22;5009;50.656;7.188;2023-03-16T19:16:55;9.70;86.60
9941;DHT22;5009;50.656;7.188;2023-03-16T19:19:21;9.70;86.60
9941;DHT22;5009;50.656;7.188;2023-03-16T19:21:50;9.70;86.90
9941;DHT22;5009;50.656;7.188;2023-03-16T19:24:25;9.70;86.90
9941;DHT22;5009;50.656;7.188;2023-03-16T19:26:52;9.70;87.00
9941;DHT22;5009;50.656;7.188;2023-03-16T19:29:19;9.70;87.30
9941;DHT22;5009;50.656;7.188;2023-03-16T19:31:46;9.60;87.70
9941;DHT22;5009;50.656;7.188;2023-03-16T19:34:17;9.60;87.80
9941;DHT22;5009;50.656;7.188;2023-03-16T19:36:44;9.60;87.70
9941;DHT22;5009;50.656;7.188;2023-03-16T19:39:13;9.60;88.10
9941;DHT22;5009;50.656;7.188;2023-03-16T19:41:40;9.50;88.10
9941;DHT22;5009;50.656;7.188;2023-03-16T19:44:22;9.50;88.20
9941;DHT22;5009;50.656;7.188;2023-03-16T19:46:50;9.50;88.40
9941;DHT22;5009;50.656;7.188;2023-03-16T19:49:20;9.50;88.80
9941;DHT22;5009;50.656;7.188;2023-03-16T19:51:47;9.50;88.60
9941;DHT22;5009;50.656;7.188;2023-03-16T19:54:29;9.50;88.70
9941;DHT22;5009;50.656;7.188;2023-03-16T19:57:05;9.50;89.00
9941;DHT22;5009;50.656;7.188;2023-03-16T19:59:34;9.50;89.20
9941;DHT22;5009;50.656;7.188;2023-03-16T20:02:00;9.40;89.40
9941;DHT22;5009;50.656;7.188;2023-03-16T20:04:26;9.40;89.70
9941;DHT22;5009;50.656;7.188;2023-03-16T20:06:52;9.40;89.70
9941;DHT22;5009;50.656;7.188;2023-03-16T20:09:20;9.40;89.60
9941;DHT22;5009;50.656;7.188;2023-03-16T20:11:47;9.40;89.50
9941;DHT22;5009;50.656;7.188;2023-03-16T20:14:19;9.40;89.60
9941;DHT22;5009;50.656;7.188;2023-03-16T20:16:45;9.40;89.80
9941;DHT22;5009;50.656;7.188;2023-03-16T20:19:13;9.30;90.00
9941;DHT22;5009;50.656;7.188;2023-03-16T20:21:40;9.30;90.00
9941;DHT22;5009;50.656;7.188;2023-03-16T20:24:13;9.30;90.20
9941;DHT22;5009;50.656;7.188;2023-03-16T20:26:40;9.30;90.20
9941;DHT22;5009;50.656;7.188;2023-03-16T20:29:21;9.30;90.20
9941;DHT22;5009;50.656;7.188;2023-03-16T20:31:48;9.30;90.20
9941;DHT22;5009;50.656;7.188;2023-03-16T20:34:22;9.30;90.20
9941;DHT22;5009;50.656;7.188;2023-03-16T20:36:48;9.30;90.20
9941;DHT22;5009;50.656;7.188;2023-03-16T20:39:13;9.20;90.10
9941;DHT22;5009;50.656;7.188;2023-03-16T20:41:39;9.20;90.40
9941;DHT22;5009;50.656;7.188;2023-03-16T20:44:04;9.20;90.60
9941;DHT22;5009;50.656;7.188;2023-03-16T20:46:31;9.20;90.40
9941;DHT22;5009;50.656;7.188;2023-03-16T20:48:57;9.10;90.50
9941;DHT22;5009;50.656;7.188;2023-03-16T20:51:25;9.10;90.50
9941;DHT22;5009;50.656;7.188;2023-03-16T20:53:51;9.10;90.60
9941;DHT22;5009;50.656;7.188;2023-03-16T20:56:19;9.10;90.20
9941;DHT22;5009;50.656;7.188;2023-03-16T20:58:47;9.10;90.30
9941;DHT22;5009;50.656;7.188;2023-03-16T21:01:18;9.10;90.30
9941;DHT22;5009;50.656;7.188;2023-03-16T21:03:47;9.10;90.10
9941;DHT22;5009;50.656;7.188;2023-03-16T21:06:20;9.10;90.00
9941;DHT22;5009;50.656;7.188;2023-03-16T21:08:52;9.10;90.00
9941;DHT22;5009;50.656;7.188;2023-03-16T21:11:35;9.10;89.70
9941;DHT22;5009;50.656;7.188;2023-03-16T21:14:02;9.10;89.60
9941;DHT22;5009;50.656;7.188;2023-03-16T21:16:28;9.10;89.70
9941;DHT22;5009;50.656;7.188;2023-03-16T21:18:54;9.10;89.20
9941;DHT22;5009;50.656;7.188;2023-03-16T21:21:20;9.20;89.30
9941;DHT22;5009;50.656;7.188;2023-03-16T21:23:46;9.10;89.30
9941;DHT22;5009;50.656;7.188;2023-03-16T21:26:22;9.20;89.20
9941;DHT22;5009;50.656;7.188;2023-03-16T21:28:54;9.20;89.10
9941;DHT22;5009;50.656;7.188;2023-03-16T21:31:22;9.20;88.80
9941;DHT22;5009;50.656;7.188;2023-03-16T21:33:48;9.20;88.70
9941;DHT22;5009;50.656;7.188;2023-03-16T21:36:17;9.20;88.50
9941;DHT22;5009;50.656;7.188;2023-03-16T21:38:43;9.10;88.70
9941;DHT22;5009;50.656;7.188;2023-03-16T21:41:09;9.10;88.30
9941;DHT22;5009;50.656;7.188;2023-03-16T21:43:36;9.10;88.60
9941;DHT22;5009;50.656;7.188;2023-03-16T21:46:02;9.10;88.40
9941;DHT22;5009;50.656;7.188;2023-03-16T21:48:38;9.10;88.50
9941;DHT22;5009;50.656;7.188;2023-03-16T21:51:18;9.10;88.30
9941;DHT22;5009;50.656;7.188;2023-03-16T21:53:46;9.10;88.60
9941;DHT22;5009;50.656;7.188;2023-03-16T21:56:17;9.10;88.00
9941;DHT22;5009;50.656;7.188;2023-03-16T21:58:44;9.10;88.20
